Time;durP1;ratioP1;P1;durP2;ratioP2;P2;SDS_P1;SDS_P2;PMS_P1;PMS_P2;Temp;Humidity;BMP_temperature;BMP_pressure;BME280_temperature;BME280_humidity;BME280_pressure;Samples;Min_cycle;Max_cycle;Signal;HPM_P1;HPM_P2
2022/04/03 00:01:22;;;;;;;5.50;2.80;;;1.20;99.90;;;;;;5037483;28;20175;-79
2022/04/03 00:03:48;;;;;;;5.70;3.30;;;1.20;99.90;;;;;;5037998;28;20184;-79
2022/04/03 00:06:14;;;;;;;6.10;3.00;;;1.20;99.90;;;;;;5037500;28;20202;-79
2022/04/03 00:08:40;;;;;;;6.67;3.10;;;1.10;99.90;;;;;;5037584;28;20220;-79
2022/04/03 00:11:05;;;;;;;6.40;2.97;;;1.10;99.90;;;;;;5038210;28;20183;-79
2022/04/03 00:13:31;;;;;;;4.33;2.80;;;1.10;99.90;;;;;;5037403;28;20167;-79
2022/04/03 00:15:57;;;;;;;5.50;3.10;;;1.10;99.90;;;;;;5037326;28;20284;-79
2022/04/03 00:18:22;;;;;;;6.47;3.30;;;1.10;99.90;;;;;;5037174;28;20513;-79
2022/04/03 00:20:49;;;;;;;4.53;2.93;;;1.10;99.90;;;;;;5036309;28;20218;-79
2022/04/03 00:23:15;;;;;;;6.00;3.00;;;1.00;99.90;;;;;;5036012;28;20221;-79
2022/04/03 00:25:41;;;;;;;2.97;2.60;;;1.00;99.90;;;;;;5036082;28;20199;-78
2022/04/03 00:28:06;;;;;;;3.97;2.60;;;0.90;99.90;;;;;;5035433;28;20173;-77
2022/04/03 00:30:33;;;;;;;11.00;3.20;;;0.90;99.90;;;;;;5039098;28;20274;-77
2022/04/03 00:32:59;;;;;;;6.47;2.93;;;0.80;99.90;;;;;;5039347;28;20172;-77
2022/04/03 00:35:25;;;;;;;6.20;3.70;;;0.80;99.90;;;;;;5040502;28;20551;-77
2022/04/03 00:37:50;;;;;;;4.90;2.90;;;0.70;99.90;;;;;;5040639;28;20179;-77
2022/04/03 00:40:17;;;;;;;4.73;2.83;;;0.70;99.90;;;;;;5041825;28;20197;-78
2022/04/03 00:42:43;;;;;;;4.03;2.87;;;0.60;99.90;;;;;;5043182;28;20240;-78
2022/04/03 00:45:10;;;;;;;5.23;2.80;;;0.60;99.90;;;;;;5042027;28;20253;-77
2022/04/03 00:47:35;;;;;;;5.07;3.07;;;0.40;99.90;;;;;;5045986;28;20195;-78
2022/04/03 00:50:02;;;;;;;5.60;3.10;;;0.40;99.90;;;;;;5047667;28;20295;-78
2022/04/03 00:52:27;;;;;;;5.80;3.23;;;0.40;99.90;;;;;;5047624;28;20174;-78
2022/04/03 00:54:53;;;;;;;4.00;3.00;;;0.40;99.90;;;;;;5048164;28;20180;-78
2022/04/03 00:57:21;;;;;;;5.67;3.17;;;0.40;99.90;;;;;;5047978;28;20186;-78
2022/04/03 00:59:49;;;;;;;10.20;3.30;;;0.40;99.90;;;;;;5048611;28;20193;-78
2022/04/03 01:02:15;;;;;;;7.33;3.67;;;0.30;99.90;;;;;;5048657;28;20281;-78
2022/04/03 01:04:41;;;;;;;6.77;3.23;;;0.20;99.90;;;;;;5048106;28;20206;-78
2022/04/03 01:07:07;;;;;;;9.67;3.90;;;0.20;99.90;;;;;;5049065;28;20210;-78
2022/04/03 01:09:33;;;;;;;6.73;3.53;;;0.10;99.90;;;;;;5048439;28;20570;-78
2022/04/03 01:11:59;;;;;;;5.63;3.47;;;0.10;99.90;;;;;;5044988;28;20174;-79
2022/04/03 01:14:31;;;;;;;7.63;3.70;;;0.00;99.90;;;;;;5040529;28;20178;-79
2022/04/03 01:16:57;;;;;;;7.17;3.97;;;0.00;99.90;;;;;;5041753;28;20261;-79
2022/04/03 01:19:24;;;;;;;6.60;3.77;;;0.00;99.90;;;;;;5054269;28;20319;-79
2022/04/03 01:21:50;;;;;;;8.70;3.80;;;0.00;99.90;;;;;;5036251;28;20311;-79
2022/04/03 01:24:20;;;;;;;9.17;4.03;;;0.00;99.90;;;;;;5038501;28;20640;-80
2022/04/03 01:26:47;;;;;;;6.47;4.00;;;-0.10;99.90;;;;;;5040426;28;20178;-80
2022/04/03 01:29:13;;;;;;;6.93;3.30;;;-0.10;99.90;;;;;;5037313;28;20200;-79
2022/04/03 01:31:39;;;;;;;8.07;3.30;;;-0.20;99.90;;;;;;5037818;28;20179;-80
2022/04/03 01:34:04;;;;;;;6.57;3.60;;;-0.20;99.90;;;;;;5039265;28;20179;-79
2022/04/03 01:36:30;;;;;;;6.87;3.53;;;-0.20;99.90;;;;;;5038696;28;20227;-79
2022/04/03 01:38:56;;;;;;;5.90;3.07;;;-0.20;99.90;;;;;;5036890;28;20197;-79
2022/04/03 01:41:21;;;;;;;8.67;3.60;;;-0.30;99.90;;;;;;5038548;28;20240;-79
2022/04/03 01:43:48;;;;;;;6.73;3.80;;;-0.40;99.90;;;;;;5038541;28;20516;-79
2022/04/03 01:46:13;;;;;;;6.97;4.33;;;-0.40;99.90;;;;;;5037380;28;20213;-79
2022/04/03 01:48:39;;;;;;;6.37;3.40;;;-0.40;99.90;;;;;;5037319;28;20173;-79
2022/04/03 01:51:05;;;;;;;6.93;3.17;;;-0.40;99.90;;;;;;5037723;28;20177;-80
2022/04/03 01:53:31;;;;;;;6.53;3.40;;;-0.40;99.90;;;;;;5037039;28;20170;-80
2022/04/03 01:56:00;;;;;;;4.50;3.00;;;-0.40;99.90;;;;;;5037739;28;20654;-79
2022/04/03 01:58:26;;;;;;;7.60;3.27;;;-0.50;99.90;;;;;;5055404;28;20173;-79
2022/04/03 02:00:52;;;;;;;5.20;3.37;;;-0.60;99.90;;;;;;5036994;28;20247;-79
2022/04/03 02:03:17;;;;;;;10.93;3.40;;;-0.50;99.90;;;;;;5036703;28;20215;-79
2022/04/03 02:05:43;;;;;;;6.23;3.43;;;-0.60;99.90;;;;;;5036575;28;20197;-79
2022/04/03 02:08:09;;;;;;;4.60;3.03;;;-0.60;99.90;;;;;;5037090;28;20184;-80
2022/04/03 02:10:35;;;;;;;5.50;3.40;;;-0.70;99.90;;;;;;5036844;28;20244;-79
2022/04/03 02:13:00;;;;;;;5.67;3.60;;;-0.70;99.90;;;;;;5035492;28;20178;-79
2022/04/03 02:15:26;;;;;;;6.00;3.37;;;-0.70;99.90;;;;;;5035690;28;20181;-78
2022/04/03 02:17:52;;;;;;;8.13;3.63;;;-0.70;99.90;;;;;;5036557;28;20180;-79
2022/04/03 02:20:17;;;;;;;11.27;3.40;;;-0.70;99.90;;;;;;5035932;28;20616;-79
2022/04/03 02:22:43;;;;;;;7.83;3.63;;;-0.70;99.90;;;;;;5036237;28;20181;-78
2022/04/03 02:25:13;;;;;;;11.00;3.90;;;-0.70;99.90;;;;;;5037853;28;20205;-78
2022/04/03 02:27:40;;;;;;;5.60;3.40;;;-0.80;99.90;;;;;;5044445;28;20192;-78
2022/04/03 02:30:09;;;;;;;7.27;3.80;;;-0.80;99.90;;;;;;5044204;28;20204;-78
2022/04/03 02:32:39;;;;;;;10.40;4.13;;;-0.80;99.90;;;;;;5044162;28;20201;-78
2022/04/03 02:35:06;;;;;;;8.37;4.13;;;-0.80;99.90;;;;;;5043743;28;20192;-78
2022/04/03 02:37:37;;;;;;;6.17;3.70;;;-0.90;99.90;;;;;;5043462;28;20197;-78
2022/04/03 02:40:04;;;;;;;11.70;3.97;;;-0.80;99.90;;;;;;5038727;28;20245;-79
2022/04/03 02:42:30;;;;;;;8.57;4.13;;;-0.80;99.90;;;;;;5054050;28;20173;-80
2022/04/03 02:44:56;;;;;;;12.77;4.77;;;-0.80;99.90;;;;;;5035950;28;20254;-80
2022/04/03 02:47:22;;;;;;;6.37;3.93;;;-0.80;99.90;;;;;;5035873;28;20173;-80
2022/04/03 02:49:50;;;;;;;8.83;3.80;;;-0.80;99.90;;;;;;5053844;28;20192;-79
2022/04/03 02:52:20;;;;;;;10.23;4.33;;;-0.80;99.90;;;;;;5039713;28;20650;-78
2022/04/03 02:54:46;;;;;;;7.13;3.70;;;-0.80;99.90;;;;;;5039819;28;20307;-79
2022/04/03 02:57:15;;;;;;;7.50;3.90;;;-0.80;99.90;;;;;;5040613;28;20177;-78
2022/04/03 02:59:42;;;;;;;11.27;4.00;;;-0.80;99.90;;;;;;5048763;28;20284;-78
2022/04/03 03:02:08;;;;;;;6.63;4.00;;;-0.80;99.90;;;;;;5048001;28;20216;-78
2022/04/03 03:04:36;;;;;;;9.40;3.67;;;-0.80;99.90;;;;;;5047862;28;20197;-78
2022/04/03 03:07:03;;;;;;;9.97;3.87;;;-0.80;99.90;;;;;;5048565;28;20576;-78
2022/04/03 03:09:29;;;;;;;5.47;3.37;;;-0.80;99.90;;;;;;5048454;28;20236;-79
2022/04/03 03:11:54;;;;;;;6.90;3.30;;;-0.80;99.90;;;;;;5048662;28;20207;-78
2022/04/03 03:14:21;;;;;;;7.63;3.67;;;-0.80;99.90;;;;;;5044590;28;20240;-78
2022/04/03 03:16:47;;;;;;;5.83;3.60;;;-0.90;99.90;;;;;;5045436;28;20517;-78
2022/04/03 03:19:13;;;;;;;5.53;3.70;;;-0.90;99.90;;;;;;5044274;28;20322;-78
2022/04/03 03:21:38;;;;;;;6.97;3.90;;;-0.90;99.90;;;;;;5045451;28;20217;-78
2022/04/03 03:24:04;;;;;;;6.07;3.60;;;-0.80;99.90;;;;;;5045827;28;20188;-78
2022/04/03 03:26:30;;;;;;;7.67;3.90;;;-0.90;99.90;;;;;;5044398;28;20209;-79
2022/04/03 03:28:56;;;;;;;5.87;3.63;;;-0.90;99.90;;;;;;5038956;28;20283;-79
2022/04/03 03:31:21;;;;;;;9.00;3.70;;;-0.90;99.90;;;;;;5038819;28;20539;-79
2022/04/03 03:33:47;;;;;;;7.60;3.20;;;-0.90;99.90;;;;;;5039888;28;20173;-79
2022/04/03 03:36:13;;;;;;;5.93;3.70;;;-0.90;99.90;;;;;;5039917;28;20375;-79
2022/04/03 03:38:40;;;;;;;4.37;3.10;;;-0.90;99.90;;;;;;5038770;28;20177;-79
2022/04/03 03:41:06;;;;;;;7.27;3.70;;;-1.00;99.90;;;;;;5038938;28;20337;-80
2022/04/03 03:43:32;;;;;;;7.80;3.60;;;-1.00;99.90;;;;;;5038750;28;20222;-80
2022/04/03 03:45:58;;;;;;;6.90;3.50;;;-1.10;99.90;;;;;;5038847;28;20276;-79
2022/04/03 03:48:25;;;;;;;5.83;3.77;;;-1.10;99.90;;;;;;5038829;28;20204;-80
2022/04/03 03:50:51;;;;;;;5.20;3.50;;;-1.10;99.90;;;;;;5038925;28;20193;-79
2022/04/03 03:53:17;;;;;;;9.67;3.83;;;-1.10;99.90;;;;;;5039648;28;20177;-78
2022/04/03 03:55:43;;;;;;;4.87;3.60;;;-1.10;99.90;;;;;;5037857;28;20180;-79
2022/04/03 03:58:09;;;;;;;10.40;4.30;;;-1.20;99.90;;;;;;5039031;28;20223;-79
2022/04/03 04:00:35;;;;;;;5.27;3.30;;;-1.20;99.90;;;;;;5038173;28;20226;-80
2022/04/03 04:03:01;;;;;;;7.20;3.87;;;-1.20;99.90;;;;;;5038456;28;20193;-79
2022/04/03 04:05:27;;;;;;;8.30;3.13;;;-1.20;99.90;;;;;;5037428;28;20197;-79
2022/04/03 04:07:53;;;;;;;7.00;3.00;;;-1.20;99.90;;;;;;5038059;28;20659;-79
2022/04/03 04:10:19;;;;;;;4.97;3.03;;;-1.20;99.90;;;;;;5037532;28;20216;-79
2022/04/03 04:12:47;;;;;;;6.27;3.30;;;-1.10;99.90;;;;;;5036474;28;20196;-79
2022/04/03 04:15:13;;;;;;;5.23;3.60;;;-1.20;99.90;;;;;;5037248;28;20704;-79
2022/04/03 04:17:47;;;;;;;6.90;3.37;;;-1.20;99.90;;;;;;5037751;28;20181;-80
2022/04/03 04:20:17;;;;;;;6.17;3.03;;;-1.20;99.90;;;;;;5037315;28;20331;-79
2022/04/03 04:22:44;;;;;;;7.73;3.20;;;-1.20;99.90;;;;;;5047812;28;20193;-78
2022/04/03 04:25:12;;;;;;;6.07;3.30;;;-1.20;99.90;;;;;;5048911;28;20688;-78
2022/04/03 04:27:38;;;;;;;9.20;2.80;;;-1.20;99.90;;;;;;5049392;28;20538;-78
2022/04/03 04:30:04;;;;;;;6.07;3.20;;;-1.30;99.90;;;;;;5045904;28;20249;-78
2022/04/03 04:32:32;;;;;;;8.63;3.00;;;-1.30;99.90;;;;;;5044975;28;20192;-79
2022/04/03 04:34:57;;;;;;;4.10;2.97;;;-1.30;99.90;;;;;;5041926;28;20256;-79
2022/04/03 04:37:24;;;;;;;7.93;3.33;;;-1.30;99.90;;;;;;5039045;28;20193;-79
2022/04/03 04:39:50;;;;;;;6.67;3.00;;;-1.30;99.90;;;;;;5038335;28;20207;-80
2022/04/03 04:42:15;;;;;;;6.97;3.50;;;-1.40;99.90;;;;;;5039563;28;20174;-80
2022/04/03 04:44:42;;;;;;;4.73;3.00;;;-1.40;99.90;;;;;;5040642;28;20200;-80
2022/04/03 04:47:08;;;;;;;3.63;2.67;;;-1.50;99.90;;;;;;5039492;28;20173;-80
2022/04/03 04:49:34;;;;;;;8.10;3.23;;;-1.50;99.90;;;;;;5038593;28;20197;-79
2022/04/03 04:52:00;;;;;;;5.97;2.90;;;-1.50;99.90;;;;;;5039961;28;20181;-79
2022/04/03 04:54:26;;;;;;;6.53;3.20;;;-1.60;99.90;;;;;;5039301;28;20169;-80
2022/04/03 04:56:53;;;;;;;5.13;2.90;;;-1.60;99.90;;;;;;5039474;28;20170;-79
2022/04/03 04:59:19;;;;;;;5.33;2.90;;;-1.60;99.90;;;;;;5039098;28;20189;-79
2022/04/03 05:01:45;;;;;;;5.90;3.30;;;-1.60;99.90;;;;;;5039279;28;20180;-80
2022/04/03 05:04:11;;;;;;;7.93;3.63;;;-1.70;99.90;;;;;;5038628;28;20177;-80
2022/04/03 05:06:38;;;;;;;4.93;3.10;;;-1.80;99.90;;;;;;5039764;28;20221;-80
2022/04/03 05:09:04;;;;;;;4.97;2.87;;;-1.70;99.90;;;;;;5039475;28;20242;-79
2022/04/03 05:11:31;;;;;;;4.27;2.90;;;-1.70;99.90;;;;;;5038919;28;20584;-80
2022/04/03 05:13:58;;;;;;;6.47;3.27;;;-1.80;99.90;;;;;;5036986;28;20169;-79
2022/04/03 05:16:24;;;;;;;6.40;2.93;;;-1.80;99.90;;;;;;5037211;28;20177;-78
2022/04/03 05:18:50;;;;;;;6.97;3.43;;;-1.80;99.90;;;;;;5036566;28;20670;-79
2022/04/03 05:21:16;;;;;;;6.07;3.27;;;-1.70;99.90;;;;;;5037014;28;20219;-79
2022/04/03 05:23:42;;;;;;;6.10;3.07;;;-1.60;99.90;;;;;;5036720;28;20514;-79
2022/04/03 05:26:08;;;;;;;6.80;3.00;;;-1.60;99.90;;;;;;5035811;28;20608;-79
2022/04/03 05:28:35;;;;;;;6.70;3.30;;;-1.50;99.90;;;;;;5036458;28;20716;-79
2022/04/03 05:31:01;;;;;;;4.63;3.00;;;-1.40;99.90;;;;;;5036561;28;20169;-81
2022/04/03 05:33:27;;;;;;;5.87;2.93;;;-1.30;99.90;;;;;;5037029;28;20609;-79
2022/04/03 05:35:52;;;;;;;6.03;3.37;;;-1.20;99.90;;;;;;5036330;28;20223;-79
2022/04/03 05:38:18;;;;;;;3.80;2.90;;;-1.10;99.90;;;;;;5036100;28;20183;-79
2022/04/03 05:40:44;;;;;;;3.97;2.57;;;-1.00;99.90;;;;;;5036349;28;20197;-79
2022/04/03 05:43:10;;;;;;;4.80;2.80;;;-0.90;99.90;;;;;;5036102;28;20227;-79
2022/04/03 05:45:37;;;;;;;3.33;2.43;;;-0.80;99.90;;;;;;5037495;28;20715;-79
2022/04/03 05:48:07;;;;;;;4.63;2.40;;;-0.60;99.90;;;;;;5036734;28;20173;-79
2022/04/03 05:50:32;;;;;;;3.33;2.60;;;-0.50;99.90;;;;;;5035386;28;20190;-78
2022/04/03 05:52:58;;;;;;;10.70;2.97;;;-0.50;99.90;;;;;;5035033;28;20178;-78
2022/04/03 05:55:24;;;;;;;8.37;2.53;;;-0.50;99.90;;;;;;5034661;28;20231;-79
2022/04/03 05:57:51;;;;;;;3.07;2.27;;;-0.30;99.90;;;;;;5034369;28;20227;-79
2022/04/03 06:00:19;;;;;;;4.73;2.47;;;-0.40;99.90;;;;;;5034359;28;20190;-78
2022/04/03 06:02:46;;;;;;;5.67;2.60;;;-0.30;99.90;;;;;;5034450;28;20178;-77
2022/04/03 06:05:12;;;;;;;5.43;2.93;;;-0.10;99.90;;;;;;5034539;28;20202;-78
2022/04/03 06:07:37;;;;;;;3.63;2.40;;;0.10;99.90;;;;;;5034367;28;20182;-79
2022/04/03 06:10:04;;;;;;;8.33;3.07;;;0.10;99.90;;;;;;5034034;28;20213;-77
2022/04/03 06:12:29;;;;;;;5.10;2.40;;;0.30;99.90;;;;;;5034686;28;20200;-80
2022/04/03 06:14:55;;;;;;;4.67;2.03;;;0.50;99.90;;;;;;5035584;28;20725;-78
2022/04/03 06:17:21;;;;;;;3.63;2.50;;;1.00;99.90;;;;;;5034419;28;20178;-78
2022/04/03 06:19:48;;;;;;;3.77;2.30;;;1.50;99.90;;;;;;5033217;28;20656;-78
2022/04/03 06:22:14;;;;;;;5.23;2.50;;;1.80;99.90;;;;;;5033923;28;20187;-78
2022/04/03 06:24:40;;;;;;;8.63;2.13;;;2.20;99.90;;;;;;5034006;28;20198;-77
2022/04/03 06:27:05;;;;;;;8.27;2.07;;;2.60;99.90;;;;;;5034322;28;20179;-78
2022/04/03 06:29:31;;;;;;;2.87;1.97;;;2.40;99.90;;;;;;5034426;28;20532;-78
2022/04/03 06:31:57;;;;;;;3.00;2.23;;;2.20;99.90;;;;;;5034099;28;20166;-78
2022/04/03 06:34:23;;;;;;;2.97;2.20;;;2.10;99.90;;;;;;5033755;28;20179;-78
2022/04/03 06:36:49;;;;;;;6.77;2.40;;;1.90;99.90;;;;;;5033939;28;20172;-78
2022/04/03 06:39:15;;;;;;;2.73;2.17;;;1.90;99.90;;;;;;5034169;28;20204;-78
2022/04/03 06:41:40;;;;;;;3.47;2.30;;;2.00;99.90;;;;;;5035096;28;20658;-80
2022/04/03 06:44:06;;;;;;;3.77;2.03;;;2.10;99.90;;;;;;5034586;28;20165;-79
2022/04/03 06:46:32;;;;;;;5.10;2.53;;;2.50;99.90;;;;;;5037366;28;20212;-77
2022/04/03 06:48:58;;;;;;;4.57;2.50;;;2.90;99.90;;;;;;5038071;28;20190;-77
2022/04/03 06:51:24;;;;;;;3.17;2.20;;;3.20;99.90;;;;;;5038488;28;20169;-78
2022/04/03 06:53:49;;;;;;;4.70;2.00;;;3.40;99.90;;;;;;5038764;28;20176;-78
2022/04/03 06:56:15;;;;;;;6.47;2.47;;;3.40;99.90;;;;;;5038596;28;20205;-77
2022/04/03 06:58:41;;;;;;;4.57;2.00;;;3.70;99.90;;;;;;5035395;28;20227;-77
2022/04/03 07:01:06;;;;;;;3.80;2.13;;;3.80;99.90;;;;;;5033928;28;20589;-77
2022/04/03 07:03:32;;;;;;;3.60;1.87;;;3.90;99.90;;;;;;5033775;28;20177;-77
2022/04/03 07:05:59;;;;;;;2.60;1.73;;;4.00;99.90;;;;;;5033559;28;20239;-77
2022/04/03 07:08:25;;;;;;;4.50;1.73;;;4.00;99.90;;;;;;5033952;28;20176;-77
2022/04/03 07:10:51;;;;;;;6.03;2.00;;;4.30;99.90;;;;;;5033609;28;20209;-78
2022/04/03 07:13:17;;;;;;;5.80;1.60;;;4.20;99.90;;;;;;5033663;28;20221;-78
2022/04/03 07:15:43;;;;;;;5.10;1.80;;;4.00;99.90;;;;;;5033494;28;20177;-78
2022/04/03 07:18:09;;;;;;;7.87;2.27;;;3.80;99.60;;;;;;5033659;28;20183;-78
2022/04/03 07:20:34;;;;;;;2.93;1.90;;;3.80;99.90;;;;;;5033465;28;20196;-77
2022/04/03 07:23:00;;;;;;;3.03;1.47;;;3.80;99.40;;;;;;5033223;28;20181;-77
2022/04/03 07:25:26;;;;;;;5.93;1.70;;;3.80;99.30;;;;;;5033713;28;20195;-78
2022/04/03 07:27:52;;;;;;;2.93;1.70;;;3.90;99.00;;;;;;5033678;28;20215;-78
2022/04/03 07:30:17;;;;;;;2.53;1.70;;;4.10;98.70;;;;;;5033686;28;20590;-78
2022/04/03 07:32:43;;;;;;;3.33;1.70;;;4.40;98.40;;;;;;5033711;28;20169;-78
2022/04/03 07:35:11;;;;;;;1.77;1.50;;;4.40;98.20;;;;;;5033142;28;20176;-77
2022/04/03 07:37:37;;;;;;;6.30;1.90;;;4.50;97.80;;;;;;5036125;28;20170;-77
2022/04/03 07:40:06;;;;;;;3.70;1.80;;;4.50;98.80;;;;;;5036985;28;20606;-78
2022/04/03 07:42:32;;;;;;;2.77;1.90;;;4.70;97.50;;;;;;5036199;28;20182;-78
2022/04/03 07:44:58;;;;;;;1.70;1.60;;;4.80;97.10;;;;;;5036042;28;20186;-78
2022/04/03 07:47:25;;;;;;;2.93;1.53;;;4.60;96.60;;;;;;5036972;28;20265;-77
2022/04/03 07:49:50;;;;;;;4.37;2.10;;;4.90;96.90;;;;;;5037458;28;20197;-77
2022/04/03 07:52:16;;;;;;;2.57;1.50;;;5.40;97.30;;;;;;5037728;28;20652;-77
2022/04/03 07:54:41;;;;;;;6.67;1.70;;;6.30;96.20;;;;;;5036721;28;20176;-77
2022/04/03 07:57:07;;;;;;;4.00;1.90;;;6.20;93.00;;;;;;5037206;28;20176;-77
2022/04/03 07:59:34;;;;;;;5.00;1.80;;;6.20;94.00;;;;;;5036764;28;20192;-77
2022/04/03 08:02:00;;;;;;;3.33;1.80;;;6.10;93.60;;;;;;5036707;28;20272;-77
2022/04/03 08:04:26;;;;;;;4.67;1.53;;;6.20;92.90;;;;;;5036436;28;20177;-77
2022/04/03 08:06:52;;;;;;;4.97;1.80;;;6.60;92.70;;;;;;5036579;28;20167;-77
2022/04/03 08:09:17;;;;;;;4.10;1.50;;;7.00;91.80;;;;;;5036223;28;20572;-77
2022/04/03 08:11:43;;;;;;;1.67;1.40;;;7.10;91.70;;;;;;5036529;28;20327;-77
2022/04/03 08:14:09;;;;;;;3.83;1.50;;;6.90;91.50;;;;;;5037087;28;20169;-76
2022/04/03 08:16:35;;;;;;;3.03;1.50;;;7.00;90.70;;;;;;5036417;28;20738;-77
2022/04/03 08:19:03;;;;;;;1.63;1.53;;;7.10;91.40;;;;;;5036335;28;20216;-77
2022/04/03 08:21:30;;;;;;;2.70;1.40;;;6.70;90.90;;;;;;5036358;28;20180;-77
2022/04/03 08:23:55;;;;;;;3.87;1.43;;;6.50;91.60;;;;;;5036459;28;20228;-77
2022/04/03 08:26:25;;;;;;;1.97;1.40;;;6.50;92.00;;;;;;5036197;28;20601;-77
2022/04/03 08:28:54;;;;;;;1.67;1.57;;;6.10;92.60;;;;;;5036276;28;20225;-77
2022/04/03 08:31:24;;;;;;;3.03;1.30;;;5.70;93.00;;;;;;5053719;28;20180;-77
2022/04/03 08:33:52;;;;;;;1.70;1.37;;;5.50;93.90;;;;;;5036177;28;20163;-77
2022/04/03 08:36:19;;;;;;;1.67;1.57;;;5.40;94.60;;;;;;5036055;28;20180;-77
2022/04/03 08:38:45;;;;;;;2.53;1.50;;;5.10;94.40;;;;;;5035899;28;20198;-77
2022/04/03 08:41:11;;;;;;;4.03;1.60;;;4.90;95.50;;;;;;5035766;28;20174;-77
2022/04/03 08:43:40;;;;;;;1.70;1.57;;;4.80;95.60;;;;;;5035965;28;20256;-77
2022/04/03 08:46:07;;;;;;;4.73;2.03;;;4.40;96.90;;;;;;5035463;28;20206;-76
2022/04/03 08:48:33;;;;;;;5.40;1.70;;;4.40;97.70;;;;;;5034381;28;20171;-76
2022/04/03 08:51:04;;;;;;;2.40;1.40;;;4.30;98.80;;;;;;5035365;28;20227;-76
2022/04/03 08:53:31;;;;;;;4.33;1.53;;;3.70;99.90;;;;;;5035140;28;20175;-77
2022/04/03 08:55:59;;;;;;;2.40;1.47;;;3.50;99.90;;;;;;5035922;28;20177;-77
2022/04/03 08:58:25;;;;;;;3.80;1.77;;;3.00;99.90;;;;;;5037120;28;20209;-77
2022/04/03 09:00:50;;;;;;;2.57;1.73;;;3.00;99.90;;;;;;5043519;28;20208;-78
2022/04/03 09:03:16;;;;;;;3.43;2.00;;;3.10;99.90;;;;;;5042239;28;20173;-77
2022/04/03 09:05:43;;;;;;;5.57;1.90;;;3.20;99.90;;;;;;5041803;28;20280;-78
2022/04/03 09:08:10;;;;;;;4.63;1.90;;;3.20;99.90;;;;;;5039069;28;20255;-77
2022/04/03 09:10:35;;;;;;;3.17;1.90;;;3.50;99.90;;;;;;5040260;28;20295;-78
2022/04/03 09:13:01;;;;;;;5.37;2.27;;;3.40;99.90;;;;;;5042866;28;20203;-77
2022/04/03 09:15:29;;;;;;;6.60;2.03;;;3.80;99.90;;;;;;5043713;28;20271;-77
2022/04/03 09:17:59;;;;;;;4.40;1.93;;;3.70;99.90;;;;;;5042825;28;20174;-77
2022/04/03 09:20:30;;;;;;;5.50;1.60;;;3.90;99.90;;;;;;5042828;28;20197;-78
2022/04/03 09:22:58;;;;;;;3.43;2.30;;;4.10;99.90;;;;;;5038587;28;20177;-78
2022/04/03 09:25:27;;;;;;;10.17;1.93;;;3.90;99.90;;;;;;5036113;28;20194;-78
2022/04/03 09:27:55;;;;;;;3.53;1.80;;;4.00;99.90;;;;;;5035247;28;20173;-80
2022/04/03 09:30:24;;;;;;;4.70;1.90;;;4.30;99.90;;;;;;5034832;28;20196;-78
2022/04/03 09:32:54;;;;;;;3.57;1.70;;;4.50;99.90;;;;;;5035444;28;20169;-77
2022/04/03 09:35:24;;;;;;;3.10;2.03;;;4.90;99.90;;;;;;5034206;28;20181;-77
2022/04/03 09:38:08;;;;;;;5.53;1.70;;;5.40;99.90;;;;;;5036438;28;20264;-77
2022/04/03 09:40:37;;;;;;;1.50;1.40;;;6.50;99.90;;;;;;5035724;28;20196;-77
2022/04/03 09:43:24;;;;;;;2.97;1.70;;;6.80;99.90;;;;;;5036547;28;20209;-77
2022/04/03 09:45:50;;;;;;;3.17;1.60;;;6.70;99.90;;;;;;5036498;28;20695;-77
2022/04/03 09:48:24;;;;;;;2.90;1.80;;;6.80;99.90;;;;;;5037006;28;20236;-77
2022/04/03 09:50:56;;;;;;;2.53;1.77;;;6.90;99.90;;;;;;5038772;28;20606;-77
2022/04/03 09:53:23;;;;;;;4.33;1.73;;;6.50;99.90;;;;;;5038112;28;20649;-77
2022/04/03 09:55:49;;;;;;;3.63;1.60;;;6.30;99.90;;;;;;5036267;28;20181;-77
2022/04/03 09:58:16;;;;;;;2.60;1.40;;;6.80;99.90;;;;;;5035663;28;20234;-77
2022/04/03 10:00:42;;;;;;;2.10;1.67;;;6.80;99.90;;;;;;5036910;28;20197;-77
2022/04/03 10:03:13;;;;;;;1.50;1.40;;;7.00;99.90;;;;;;5034444;28;20181;-77
2022/04/03 10:05:39;;;;;;;3.33;1.90;;;6.80;99.90;;;;;;5035180;28;20224;-77
2022/04/03 10:08:06;;;;;;;4.40;1.73;;;6.90;99.90;;;;;;5037342;28;20219;-77
2022/04/03 10:10:34;;;;;;;5.43;1.80;;;6.50;99.90;;;;;;5034463;28;20223;-77
2022/04/03 10:13:01;;;;;;;2.07;1.53;;;6.20;99.90;;;;;;5034442;28;20259;-77
2022/04/03 10:15:27;;;;;;;3.13;1.70;;;6.20;99.90;;;;;;5035241;28;20177;-77
2022/04/03 10:17:54;;;;;;;3.67;1.80;;;6.20;99.90;;;;;;5034622;28;20661;-77
2022/04/03 10:20:30;;;;;;;3.10;1.60;;;6.20;99.90;;;;;;5035387;28;20231;-77
2022/04/03 10:23:07;;;;;;;2.80;1.70;;;6.20;99.90;;;;;;5034302;28;20211;-77
2022/04/03 10:25:38;;;;;;;4.13;1.60;;;6.30;99.90;;;;;;5034862;28;20199;-78
2022/04/03 10:28:07;;;;;;;2.03;1.60;;;6.60;99.90;;;;;;5033156;28;20183;-78
2022/04/03 10:30:38;;;;;;;5.27;1.47;;;6.90;99.90;;;;;;5033564;28;20203;-79
2022/04/03 10:33:04;;;;;;;5.07;1.60;;;6.90;99.90;;;;;;5033112;28;20180;-77
2022/04/03 10:35:30;;;;;;;5.10;2.13;;;6.70;99.90;;;;;;5033471;28;20645;-78
2022/04/03 10:38:05;;;;;;;2.63;1.30;;;7.00;99.90;;;;;;5033472;28;20184;-78
2022/04/03 10:40:33;;;;;;;2.73;1.70;;;7.40;99.90;;;;;;5033142;28;20203;-78
2022/04/03 10:43:03;;;;;;;3.37;1.93;;;7.60;99.90;;;;;;5033303;28;20177;-78
2022/04/03 10:45:33;;;;;;;3.53;1.60;;;7.80;99.90;;;;;;5033139;28;20282;-77
2022/04/03 10:48:20;;;;;;;2.50;1.50;;;8.00;99.90;;;;;;5033264;28;20176;-78
2022/04/03 10:51:21;;;;;;;2.00;1.60;;;8.20;99.90;;;;;;5032983;28;20237;-78
2022/04/03 10:53:54;;;;;;;6.37;1.50;;;8.90;99.90;;;;;;5033065;28;20191;-78
2022/04/03 10:56:23;;;;;;;4.83;1.60;;;9.10;99.90;;;;;;5034024;28;20218;-78
2022/04/03 10:58:53;;;;;;;4.77;1.50;;;9.70;99.90;;;;;;5033763;28;20202;-78
2022/04/03 11:01:33;;;;;;;1.73;1.47;;;9.60;99.90;;;;;;5033707;28;20600;-78
2022/04/03 11:04:08;;;;;;;2.93;1.50;;;9.00;99.90;;;;;;5033927;28;20168;-78
2022/04/03 11:06:36;;;;;;;4.73;1.50;;;9.00;99.90;;;;;;5052398;28;20173;-77
2022/04/03 11:09:06;;;;;;;1.57;1.30;;;8.70;99.30;;;;;;5033891;28;20193;-78
2022/04/03 11:11:47;;;;;;;3.70;1.37;;;8.40;99.90;;;;;;5034910;28;20182;-77
2022/04/03 11:14:50;;;;;;;2.70;1.50;;;8.60;97.30;;;;;;5037515;28;20168;-77
2022/04/03 11:17:15;;;;;;;2.73;1.60;;;8.90;98.90;;;;;;5037116;28;20188;-78
2022/04/03 11:19:43;;;;;;;2.80;1.30;;;9.30;97.70;;;;;;5055246;28;20196;-78
2022/04/03 11:22:12;;;;;;;4.47;1.70;;;8.80;96.60;;;;;;5039505;28;20182;-79
2022/04/03 11:24:38;;;;;;;3.63;1.50;;;8.40;97.70;;;;;;5039397;28;20203;-78
2022/04/03 11:27:08;;;;;;;2.07;1.67;;;9.00;97.70;;;;;;5039256;28;20698;-77
2022/04/03 11:29:34;;;;;;;3.63;1.60;;;10.00;95.60;;;;;;5059357;28;20190;-79
2022/04/03 11:32:09;;;;;;;2.10;1.47;;;10.50;94.50;;;;;;5037458;28;20177;-77
2022/04/03 11:34:35;;;;;;;2.73;1.33;;;11.00;93.30;;;;;;5036819;28;20513;-78
2022/04/03 11:37:03;;;;;;;4.33;1.73;;;10.20;91.20;;;;;;5036794;28;20181;-79
2022/04/03 11:39:37;;;;;;;2.53;1.40;;;9.30;93.60;;;;;;5035904;28;20756;-79
2022/04/03 11:42:06;;;;;;;2.30;1.50;;;9.00;94.90;;;;;;5036068;28;20163;-78
2022/04/03 11:44:32;;;;;;;5.63;1.57;;;8.90;95.30;;;;;;5037105;28;20261;-77
2022/04/03 11:47:00;;;;;;;1.97;1.40;;;8.60;93.70;;;;;;5036315;28;20168;-77
2022/04/03 11:49:28;;;;;;;2.63;1.40;;;8.40;94.30;;;;;;5037314;28;20195;-77
2022/04/03 11:51:57;;;;;;;2.70;1.47;;;9.00;95.10;;;;;;5036843;28;20531;-77
2022/04/03 11:54:25;;;;;;;2.93;1.40;;;9.30;94.50;;;;;;5032391;28;20179;-77
2022/04/03 11:56:58;;;;;;;5.70;1.60;;;9.20;94.20;;;;;;5034986;28;20174;-77
2022/04/03 11:59:24;;;;;;;4.63;1.70;;;9.10;92.20;;;;;;5027993;28;20200;-77
2022/04/03 12:01:50;;;;;;;3.60;1.30;;;9.30;93.50;;;;;;5035516;28;20536;-78
2022/04/03 12:04:18;;;;;;;5.23;1.63;;;9.20;92.70;;;;;;5035629;28;20175;-78
2022/04/03 12:06:48;;;;;;;1.73;1.30;;;9.00;93.70;;;;;;5033184;28;20556;-77
2022/04/03 12:09:16;;;;;;;4.03;1.37;;;8.60;93.00;;;;;;5053540;28;20284;-78
2022/04/03 12:11:48;;;;;;;2.23;1.73;;;8.30;93.00;;;;;;5032698;28;20570;-78
2022/04/03 12:14:30;;;;;;;3.47;1.50;;;8.20;94.80;;;;;;5035636;28;20175;-77
2022/04/03 12:17:11;;;;;;;3.00;1.40;;;7.80;96.80;;;;;;5033620;28;20536;-78
2022/04/03 12:19:39;;;;;;;2.93;1.50;;;7.20;99.10;;;;;;5021246;28;20194;-78
2022/04/03 12:22:08;;;;;;;4.63;1.90;;;6.80;99.90;;;;;;5034557;28;20176;-77
2022/04/03 12:24:35;;;;;;;2.87;1.50;;;6.70;99.90;;;;;;5033533;28;20174;-77
2022/04/03 12:27:02;;;;;;;3.40;1.50;;;6.70;99.90;;;;;;5034581;28;20177;-77
2022/04/03 12:29:30;;;;;;;5.27;2.03;;;6.80;99.90;;;;;;5034541;28;20200;-78
2022/04/03 12:32:04;;;;;;;2.03;1.33;;;7.10;99.90;;;;;;5034392;28;20560;-77
2022/04/03 12:34:32;;;;;;;6.03;1.37;;;7.30;99.90;;;;;;5033926;28;20526;-77
2022/04/03 12:36:59;;;;;;;2.23;1.33;;;7.50;99.90;;;;;;5034627;28;20173;-77
2022/04/03 12:39:43;;;;;;;2.50;1.60;;;7.50;99.90;;;;;;5034873;28;20568;-77
2022/04/03 12:42:11;;;;;;;3.20;1.47;;;7.60;99.30;;;;;;5041503;28;20169;-78
2022/04/03 12:44:52;;;;;;;1.50;1.40;;;7.50;99.60;;;;;;5035812;28;20183;-77
2022/04/03 12:47:37;;;;;;;4.63;1.60;;;7.50;99.70;;;;;;5034540;28;20519;-77
2022/04/03 12:50:06;;;;;;;2.63;1.43;;;7.40;99.90;;;;;;5032626;28;20196;-77
2022/04/03 12:52:50;;;;;;;2.07;1.57;;;7.60;99.40;;;;;;5035058;28;20201;-77
2022/04/03 12:55:24;;;;;;;5.33;1.93;;;7.60;99.20;;;;;;5036845;28;20192;-78